sensor_id;sensor_type;location;lat;lon;timestamp;P1;durP1;ratioP1;P2;durP2;ratioP2
64029;SDS011;50277;52.064;4.492;2023-07-16T00:01:51;16.73;;;4.40;;
64029;SDS011;50277;52.064;4.492;2023-07-16T00:04:17;8.65;;;3.55;;
64029;SDS011;50277;52.064;4.492;2023-07-16T00:06:42;12.35;;;3.72;;
64029;SDS011;50277;52.064;4.492;2023-07-16T00:09:08;16.40;;;4.30;;
64029;SDS011;50277;52.064;4.492;2023-07-16T00:11:33;12.55;;;3.92;;
64029;SDS011;50277;52.064;4.492;2023-07-16T00:13:58;8.70;;;3.83;;
64029;SDS011;50277;52.064;4.492;2023-07-16T00:16:24;10.55;;;4.25;;
64029;SDS011;50277;52.064;4.492;2023-07-16T00:18:49;12.50;;;5.07;;
64029;SDS011;50277;52.064;4.492;2023-07-16T00:21:14;8.30;;;3.55;;
64029;SDS011;50277;52.064;4.492;2023-07-16T00:23:40;14.02;;;4.13;;
64029;SDS011;50277;52.064;4.492;2023-07-16T00:26:05;8.85;;;3.70;;
64029;SDS011;50277;52.064;4.492;2023-07-16T00:28:30;15.45;;;4.55;;
64029;SDS011;50277;52.064;4.492;2023-07-16T00:30:56;12.23;;;4.80;;
64029;SDS011;50277;52.064;4.492;2023-07-16T00:33:21;10.15;;;4.10;;
64029;SDS011;50277;52.064;4.492;2023-07-16T00:35:47;8.82;;;4.18;;
64029;SDS011;50277;52.064;4.492;2023-07-16T00:38:14;14.25;;;4.60;;
64029;SDS011;50277;52.064;4.492;2023-07-16T00:40:39;14.63;;;4.00;;
64029;SDS011;50277;52.064;4.492;2023-07-16T00:43:04;14.75;;;4.43;;
64029;SDS011;50277;52.064;4.492;2023-07-16T00:45:30;13.02;;;4.65;;
64029;SDS011;50277;52.064;4.492;2023-07-16T00:47:55;11.93;;;4.57;;
64029;SDS011;50277;52.064;4.492;2023-07-16T00:50:20;12.35;;;4.43;;
64029;SDS011;50277;52.064;4.492;2023-07-16T00:52:46;16.45;;;4.88;;
64029;SDS011;50277;52.064;4.492;2023-07-16T00:55:11;13.35;;;4.53;;
64029;SDS011;50277;52.064;4.492;2023-07-16T00:57:37;10.55;;;4.72;;
64029;SDS011;50277;52.064;4.492;2023-07-16T01:00:03;9.10;;;4.47;;
64029;SDS011;50277;52.064;4.492;2023-07-16T01:02:29;15.05;;;5.40;;
64029;SDS011;50277;52.064;4.492;2023-07-16T01:04:55;11.13;;;4.80;;
64029;SDS011;50277;52.064;4.492;2023-07-16T01:07:20;13.80;;;4.57;;
64029;SDS011;50277;52.064;4.492;2023-07-16T01:09:49;14.20;;;4.85;;
64029;SDS011;50277;52.064;4.492;2023-07-16T01:12:15;13.48;;;4.97;;
64029;SDS011;50277;52.064;4.492;2023-07-16T01:14:41;9.85;;;4.72;;
64029;SDS011;50277;52.064;4.492;2023-07-16T01:17:06;10.90;;;4.82;;
64029;SDS011;50277;52.064;4.492;2023-07-16T01:19:32;11.93;;;4.85;;
64029;SDS011;50277;52.064;4.492;2023-07-16T01:30:10;14.73;;;5.45;;
64029;SDS011;50277;52.064;4.492;2023-07-16T01:32:36;10.25;;;5.03;;
64029;SDS011;50277;52.064;4.492;2023-07-16T01:35:03;10.15;;;4.88;;
64029;SDS011;50277;52.064;4.492;2023-07-16T01:37:30;16.38;;;5.63;;
64029;SDS011;50277;52.064;4.492;2023-07-16T01:39:55;12.43;;;5.60;;
64029;SDS011;50277;52.064;4.492;2023-07-16T01:42:21;16.52;;;5.85;;
64029;SDS011;50277;52.064;4.492;2023-07-16T01:44:46;13.73;;;6.13;;
64029;SDS011;50277;52.064;4.492;2023-07-16T01:47:13;12.85;;;5.72;;
64029;SDS011;50277;52.064;4.492;2023-07-16T01:49:40;13.85;;;6.28;;
64029;SDS011;50277;52.064;4.492;2023-07-16T01:52:09;17.58;;;6.80;;
64029;SDS011;50277;52.064;4.492;2023-07-16T01:54:34;10.73;;;5.00;;
64029;SDS011;50277;52.064;4.492;2023-07-16T01:57:00;18.80;;;6.47;;
64029;SDS011;50277;52.064;4.492;2023-07-16T01:59:26;18.42;;;6.00;;
64029;SDS011;50277;52.064;4.492;2023-07-16T02:01:51;14.70;;;5.53;;
64029;SDS011;50277;52.064;4.492;2023-07-16T02:04:16;16.48;;;6.65;;
64029;SDS011;50277;52.064;4.492;2023-07-16T02:06:42;16.45;;;6.07;;
64029;SDS011;50277;52.064;4.492;2023-07-16T02:09:07;15.77;;;6.30;;
64029;SDS011;50277;52.064;4.492;2023-07-16T02:11:33;17.35;;;6.68;;
64029;SDS011;50277;52.064;4.492;2023-07-16T02:13:58;11.90;;;5.60;;
64029;SDS011;50277;52.064;4.492;2023-07-16T02:16:24;15.32;;;6.35;;
64029;SDS011;50277;52.064;4.492;2023-07-16T02:18:49;12.43;;;5.60;;
64029;SDS011;50277;52.064;4.492;2023-07-16T02:21:14;19.40;;;6.55;;
64029;SDS011;50277;52.064;4.492;2023-07-16T02:23:40;14.63;;;6.22;;
64029;SDS011;50277;52.064;4.492;2023-07-16T02:26:06;16.25;;;6.43;;
64029;SDS011;50277;52.064;4.492;2023-07-16T02:28:31;19.70;;;7.13;;
64029;SDS011;50277;52.064;4.492;2023-07-16T02:30:56;13.52;;;6.22;;
64029;SDS011;50277;52.064;4.492;2023-07-16T02:33:22;20.23;;;6.85;;
64029;SDS011;50277;52.064;4.492;2023-07-16T02:35:48;14.85;;;6.30;;
64029;SDS011;50277;52.064;4.492;2023-07-16T02:38:14;16.88;;;6.75;;
64029;SDS011;50277;52.064;4.492;2023-07-16T02:40:46;17.63;;;6.90;;
64029;SDS011;50277;52.064;4.492;2023-07-16T02:43:12;17.42;;;6.93;;
64029;SDS011;50277;52.064;4.492;2023-07-16T02:45:37;18.75;;;7.15;;
64029;SDS011;50277;52.064;4.492;2023-07-16T02:48:04;15.82;;;7.05;;
64029;SDS011;50277;52.064;4.492;2023-07-16T02:50:29;15.30;;;6.40;;
64029;SDS011;50277;52.064;4.492;2023-07-16T02:52:55;13.85;;;6.30;;
64029;SDS011;50277;52.064;4.492;2023-07-16T02:55:20;16.40;;;6.13;;
64029;SDS011;50277;52.064;4.492;2023-07-16T02:57:45;19.52;;;6.72;;
64029;SDS011;50277;52.064;4.492;2023-07-16T03:00:11;16.08;;;6.28;;
64029;SDS011;50277;52.064;4.492;2023-07-16T03:02:36;11.85;;;5.72;;
64029;SDS011;50277;52.064;4.492;2023-07-16T03:05:02;11.45;;;5.60;;
64029;SDS011;50277;52.064;4.492;2023-07-16T03:07:28;16.83;;;5.50;;
64029;SDS011;50277;52.064;4.492;2023-07-16T03:09:53;13.80;;;5.45;;
64029;SDS011;50277;52.064;4.492;2023-07-16T03:12:18;12.05;;;5.53;;
64029;SDS011;50277;52.064;4.492;2023-07-16T03:14:44;11.55;;;5.25;;
64029;SDS011;50277;52.064;4.492;2023-07-16T03:17:09;18.67;;;4.97;;
64029;SDS011;50277;52.064;4.492;2023-07-16T03:19:34;16.83;;;5.05;;
64029;SDS011;50277;52.064;4.492;2023-07-16T03:22:00;13.85;;;4.55;;
64029;SDS011;50277;52.064;4.492;2023-07-16T03:24:25;11.02;;;4.13;;
64029;SDS011;50277;52.064;4.492;2023-07-16T03:26:50;10.02;;;4.55;;
64029;SDS011;50277;52.064;4.492;2023-07-16T03:29:16;15.05;;;4.95;;
64029;SDS011;50277;52.064;4.492;2023-07-16T03:31:41;9.27;;;4.68;;
64029;SDS011;50277;52.064;4.492;2023-07-16T03:34:06;12.93;;;5.20;;
64029;SDS011;50277;52.064;4.492;2023-07-16T03:36:32;12.27;;;6.03;;
64029;SDS011;50277;52.064;4.492;2023-07-16T03:38:57;13.13;;;5.90;;
64029;SDS011;50277;52.064;4.492;2023-07-16T03:41:22;12.48;;;4.90;;
64029;SDS011;50277;52.064;4.492;2023-07-16T03:43:48;15.55;;;5.75;;
64029;SDS011;50277;52.064;4.492;2023-07-16T03:46:13;18.27;;;5.47;;
64029;SDS011;50277;52.064;4.492;2023-07-16T03:48:38;13.65;;;4.82;;
64029;SDS011;50277;52.064;4.492;2023-07-16T03:51:04;10.20;;;5.30;;
64029;SDS011;50277;52.064;4.492;2023-07-16T03:53:29;11.55;;;5.15;;
64029;SDS011;50277;52.064;4.492;2023-07-16T03:55:54;10.50;;;4.95;;
64029;SDS011;50277;52.064;4.492;2023-07-16T03:58:20;14.25;;;5.72;;
64029;SDS011;50277;52.064;4.492;2023-07-16T04:00:45;14.02;;;6.28;;
64029;SDS011;50277;52.064;4.492;2023-07-16T04:03:11;21.90;;;6.13;;
64029;SDS011;50277;52.064;4.492;2023-07-16T04:05:36;17.90;;;6.68;;
64029;SDS011;50277;52.064;4.492;2023-07-16T04:08:01;17.85;;;6.20;;
64029;SDS011;50277;52.064;4.492;2023-07-16T04:10:27;17.88;;;5.93;;
64029;SDS011;50277;52.064;4.492;2023-07-16T04:12:52;13.50;;;6.43;;
64029;SDS011;50277;52.064;4.492;2023-07-16T04:15:17;19.90;;;6.60;;
64029;SDS011;50277;52.064;4.492;2023-07-16T04:17:43;12.65;;;6.88;;
64029;SDS011;50277;52.064;4.492;2023-07-16T04:20:08;13.15;;;5.78;;
64029;SDS011;50277;52.064;4.492;2023-07-16T04:22:34;12.00;;;6.35;;
64029;SDS011;50277;52.064;4.492;2023-07-16T04:25:00;15.50;;;6.53;;
64029;SDS011;50277;52.064;4.492;2023-07-16T04:27:25;12.77;;;6.18;;
64029;SDS011;50277;52.064;4.492;2023-07-16T04:29:51;13.63;;;6.70;;
64029;SDS011;50277;52.064;4.492;2023-07-16T04:32:16;12.93;;;6.00;;
64029;SDS011;50277;52.064;4.492;2023-07-16T04:34:41;14.15;;;6.55;;
64029;SDS011;50277;52.064;4.492;2023-07-16T04:37:07;10.00;;;5.88;;
64029;SDS011;50277;52.064;4.492;2023-07-16T04:39:32;13.90;;;5.97;;
64029;SDS011;50277;52.064;4.492;2023-07-16T04:41:57;14.88;;;6.38;;
64029;SDS011;50277;52.064;4.492;2023-07-16T04:44:23;19.40;;;6.35;;
64029;SDS011;50277;52.064;4.492;2023-07-16T04:46:48;12.20;;;6.65;;
64029;SDS011;50277;52.064;4.492;2023-07-16T04:49:13;14.25;;;5.65;;
64029;SDS011;50277;52.064;4.492;2023-07-16T04:51:38;11.88;;;5.72;;
64029;SDS011;50277;52.064;4.492;2023-07-16T04:54:04;11.90;;;5.70;;
64029;SDS011;50277;52.064;4.492;2023-07-16T04:56:29;11.43;;;5.82;;
64029;SDS011;50277;52.064;4.492;2023-07-16T04:58:54;11.75;;;5.88;;
64029;SDS011;50277;52.064;4.492;2023-07-16T05:01:20;12.48;;;6.22;;
64029;SDS011;50277;52.064;4.492;2023-07-16T05:03:45;11.50;;;6.07;;
64029;SDS011;50277;52.064;4.492;2023-07-16T05:06:11;11.57;;;5.78;;
64029;SDS011;50277;52.064;4.492;2023-07-16T05:08:36;10.18;;;4.88;;
64029;SDS011;50277;52.064;4.492;2023-07-16T05:11:01;14.40;;;5.97;;
64029;SDS011;50277;52.064;4.492;2023-07-16T05:13:27;12.60;;;5.03;;
64029;SDS011;50277;52.064;4.492;2023-07-16T05:15:52;13.55;;;6.15;;
64029;SDS011;50277;52.064;4.492;2023-07-16T05:18:18;11.25;;;5.13;;
64029;SDS011;50277;52.064;4.492;2023-07-16T05:20:46;11.48;;;5.30;;
64029;SDS011;50277;52.064;4.492;2023-07-16T05:23:12;18.35;;;5.82;;
64029;SDS011;50277;52.064;4.492;2023-07-16T05:25:37;10.82;;;5.63;;
64029;SDS011;50277;52.064;4.492;2023-07-16T05:28:02;10.55;;;5.18;;
64029;SDS011;50277;52.064;4.492;2023-07-16T05:30:28;12.60;;;5.28;;
64029;SDS011;50277;52.064;4.492;2023-07-16T05:32:53;12.18;;;4.97;;
64029;SDS011;50277;52.064;4.492;2023-07-16T05:35:18;12.32;;;5.10;;
64029;SDS011;50277;52.064;4.492;2023-07-16T05:37:44;12.20;;;5.10;;
64029;SDS011;50277;52.064;4.492;2023-07-16T05:40:09;10.30;;;5.32;;
64029;SDS011;50277;52.064;4.492;2023-07-16T05:42:35;11.60;;;5.70;;
64029;SDS011;50277;52.064;4.492;2023-07-16T05:45:00;12.75;;;5.95;;
64029;SDS011;50277;52.064;4.492;2023-07-16T05:47:26;11.10;;;5.13;;
64029;SDS011;50277;52.064;4.492;2023-07-16T05:49:51;11.80;;;4.90;;
64029;SDS011;50277;52.064;4.492;2023-07-16T05:52:16;15.20;;;5.15;;
64029;SDS011;50277;52.064;4.492;2023-07-16T05:54:43;10.38;;;5.43;;
64029;SDS011;50277;52.064;4.492;2023-07-16T05:57:09;9.80;;;5.65;;
64029;SDS011;50277;52.064;4.492;2023-07-16T05:59:35;9.30;;;5.15;;
64029;SDS011;50277;52.064;4.492;2023-07-16T06:02:02;9.43;;;5.35;;
64029;SDS011;50277;52.064;4.492;2023-07-16T06:04:28;11.23;;;5.28;;
64029;SDS011;50277;52.064;4.492;2023-07-16T06:06:53;11.25;;;5.35;;
64029;SDS011;50277;52.064;4.492;2023-07-16T06:09:18;11.90;;;5.10;;
64029;SDS011;50277;52.064;4.492;2023-07-16T06:11:46;11.68;;;6.05;;
64029;SDS011;50277;52.064;4.492;2023-07-16T06:16:37;13.88;;;6.35;;
64029;SDS011;50277;52.064;4.492;2023-07-16T06:19:03;15.30;;;5.97;;
64029;SDS011;50277;52.064;4.492;2023-07-16T06:21:28;10.80;;;5.20;;
64029;SDS011;50277;52.064;4.492;2023-07-16T06:23:53;10.68;;;5.50;;
64029;SDS011;50277;52.064;4.492;2023-07-16T06:26:19;10.23;;;5.20;;
64029;SDS011;50277;52.064;4.492;2023-07-16T06:28:44;11.82;;;5.85;;
64029;SDS011;50277;52.064;4.492;2023-07-16T06:31:10;10.23;;;5.45;;
64029;SDS011;50277;52.064;4.492;2023-07-16T06:33:35;13.38;;;5.72;;
64029;SDS011;50277;52.064;4.492;2023-07-16T06:36:01;13.05;;;5.30;;
64029;SDS011;50277;52.064;4.492;2023-07-16T06:38:26;9.57;;;5.10;;
64029;SDS011;50277;52.064;4.492;2023-07-16T06:40:51;9.35;;;5.40;;
64029;SDS011;50277;52.064;4.492;2023-07-16T06:43:17;15.70;;;5.70;;
64029;SDS011;50277;52.064;4.492;2023-07-16T06:45:42;11.93;;;4.50;;
64029;SDS011;50277;52.064;4.492;2023-07-16T06:48:08;13.82;;;5.40;;
64029;SDS011;50277;52.064;4.492;2023-07-16T06:50:33;11.40;;;5.78;;
64029;SDS011;50277;52.064;4.492;2023-07-16T06:52:59;7.70;;;4.88;;
64029;SDS011;50277;52.064;4.492;2023-07-16T06:55:24;10.75;;;5.22;;
64029;SDS011;50277;52.064;4.492;2023-07-16T06:57:49;10.15;;;5.30;;
64029;SDS011;50277;52.064;4.492;2023-07-16T07:00:15;9.88;;;4.60;;
64029;SDS011;50277;52.064;4.492;2023-07-16T07:02:40;11.02;;;4.90;;
64029;SDS011;50277;52.064;4.492;2023-07-16T07:05:06;12.43;;;5.13;;
64029;SDS011;50277;52.064;4.492;2023-07-16T07:07:32;10.60;;;5.63;;
64029;SDS011;50277;52.064;4.492;2023-07-16T07:09:57;10.30;;;5.57;;
64029;SDS011;50277;52.064;4.492;2023-07-16T07:12:23;10.35;;;5.35;;
64029;SDS011;50277;52.064;4.492;2023-07-16T07:14:48;9.45;;;5.30;;
64029;SDS011;50277;52.064;4.492;2023-07-16T07:17:14;17.50;;;5.70;;
64029;SDS011;50277;52.064;4.492;2023-07-16T07:19:39;9.13;;;5.72;;
64029;SDS011;50277;52.064;4.492;2023-07-16T07:22:04;9.65;;;5.60;;
64029;SDS011;50277;52.064;4.492;2023-07-16T07:24:30;9.70;;;5.47;;
64029;SDS011;50277;52.064;4.492;2023-07-16T07:26:55;10.93;;;5.55;;
64029;SDS011;50277;52.064;4.492;2023-07-16T07:29:20;11.27;;;5.40;;
64029;SDS011;50277;52.064;4.492;2023-07-16T07:31:46;13.82;;;6.32;;
64029;SDS011;50277;52.064;4.492;2023-07-16T07:34:11;15.27;;;6.30;;
64029;SDS011;50277;52.064;4.492;2023-07-16T07:36:36;10.20;;;5.93;;
64029;SDS011;50277;52.064;4.492;2023-07-16T07:39:02;12.95;;;5.93;;
64029;SDS011;50277;52.064;4.492;2023-07-16T07:41:27;11.73;;;5.97;;
64029;SDS011;50277;52.064;4.492;2023-07-16T07:43:52;10.90;;;5.57;;
64029;SDS011;50277;52.064;4.492;2023-07-16T07:46:18;10.10;;;5.22;;
64029;SDS011;50277;52.064;4.492;2023-07-16T07:48:43;13.95;;;5.82;;
64029;SDS011;50277;52.064;4.492;2023-07-16T07:51:09;10.75;;;4.82;;
64029;SDS011;50277;52.064;4.492;2023-07-16T07:53:34;9.27;;;5.13;;
64029;SDS011;50277;52.064;4.492;2023-07-16T07:55:59;8.43;;;5.20;;
64029;SDS011;50277;52.064;4.492;2023-07-16T07:58:24;6.80;;;4.95;;
64029;SDS011;50277;52.064;4.492;2023-07-16T08:00:50;8.55;;;5.18;;
64029;SDS011;50277;52.064;4.492;2023-07-16T08:03:15;8.20;;;5.18;;
64029;SDS011;50277;52.064;4.492;2023-07-16T08:05:40;17.63;;;7.60;;
64029;SDS011;50277;52.064;4.492;2023-07-16T08:08:07;9.27;;;5.25;;
64029;SDS011;50277;52.064;4.492;2023-07-16T08:10:32;9.20;;;4.60;;
64029;SDS011;50277;52.064;4.492;2023-07-16T08:12:57;11.27;;;4.57;;
64029;SDS011;50277;52.064;4.492;2023-07-16T08:15:23;8.68;;;4.80;;
64029;SDS011;50277;52.064;4.492;2023-07-16T08:17:48;9.57;;;5.13;;
64029;SDS011;50277;52.064;4.492;2023-07-16T08:20:14;9.07;;;4.70;;
64029;SDS011;50277;52.064;4.492;2023-07-16T08:22:39;10.05;;;5.20;;
64029;SDS011;50277;52.064;4.492;2023-07-16T08:25:05;12.32;;;4.65;;
64029;SDS011;50277;52.064;4.492;2023-07-16T08:27:31;10.48;;;4.55;;
64029;SDS011;50277;52.064;4.492;2023-07-16T08:29:56;8.55;;;4.93;;
64029;SDS011;50277;52.064;4.492;2023-07-16T08:32:22;13.82;;;5.75;;
64029;SDS011;50277;52.064;4.492;2023-07-16T08:34:47;13.18;;;5.50;;
64029;SDS011;50277;52.064;4.492;2023-07-16T08:37:13;9.38;;;5.28;;
64029;SDS011;50277;52.064;4.492;2023-07-16T08:39:38;12.65;;;5.32;;
64029;SDS011;50277;52.064;4.492;2023-07-16T08:42:04;10.32;;;4.65;;
64029;SDS011;50277;52.064;4.492;2023-07-16T08:44:30;13.88;;;5.47;;
64029;SDS011;50277;52.064;4.492;2023-07-16T08:46:55;10.73;;;4.97;;
64029;SDS011;50277;52.064;4.492;2023-07-16T08:49:21;10.25;;;5.53;;
64029;SDS011;50277;52.064;4.492;2023-07-16T08:51:47;8.95;;;4.82;;
64029;SDS011;50277;52.064;4.492;2023-07-16T08:54:13;12.07;;;5.07;;
64029;SDS011;50277;52.064;4.492;2023-07-16T08:56:42;9.80;;;5.60;;
64029;SDS011;50277;52.064;4.492;2023-07-16T08:59:08;11.70;;;4.93;;
64029;SDS011;50277;52.064;4.492;2023-07-16T09:01:35;12.13;;;5.35;;
64029;SDS011;50277;52.064;4.492;2023-07-16T09:04:03;8.90;;;5.40;;
64029;SDS011;50277;52.064;4.492;2023-07-16T09:06:29;10.70;;;5.50;;
64029;SDS011;50277;52.064;4.492;2023-07-16T09:08:55;9.82;;;5.10;;
64029;SDS011;50277;52.064;4.492;2023-07-16T09:11:20;10.50;;;5.15;;
64029;SDS011;50277;52.064;4.492;2023-07-16T09:13:47;10.90;;;5.53;;
64029;SDS011;50277;52.064;4.492;2023-07-16T09:16:13;10.05;;;5.35;;
64029;SDS011;50277;52.064;4.492;2023-07-16T09:18:41;15.50;;;6.07;;
64029;SDS011;50277;52.064;4.492;2023-07-16T09:21:07;14.70;;;6.85;;
64029;SDS011;50277;52.064;4.492;2023-07-16T09:23:32;11.60;;;6.68;;
64029;SDS011;50277;52.064;4.492;2023-07-16T09:25:58;11.10;;;5.65;;
64029;SDS011;50277;52.064;4.492;2023-07-16T09:28:23;10.30;;;5.25;;
64029;SDS011;50277;52.064;4.492;2023-07-16T09:30:50;11.48;;;5.05;;
64029;SDS011;50277;52.064;4.492;2023-07-16T09:33:17;11.05;;;4.60;;
64029;SDS011;50277;52.064;4.492;2023-07-16T09:35:49;12.10;;;5.15;;
64029;SDS011;50277;52.064;4.492;2023-07-16T09:38:15;14.38;;;4.80;;
64029;SDS011;50277;52.064;4.492;2023-07-16T09:40:41;11.07;;;4.35;;
64029;SDS011;50277;52.064;4.492;2023-07-16T09:43:09;11.55;;;4.43;;
64029;SDS011;50277;52.064;4.492;2023-07-16T09:45:36;14.05;;;5.25;;
64029;SDS011;50277;52.064;4.492;2023-07-16T09:48:04;9.15;;;4.38;;
64029;SDS011;50277;52.064;4.492;2023-07-16T09:50:34;12.65;;;4.55;;
64029;SDS011;50277;52.064;4.492;2023-07-16T09:53:00;13.13;;;5.03;;
64029;SDS011;50277;52.064;4.492;2023-07-16T09:55:27;13.10;;;4.78;;
64029;SDS011;50277;52.064;4.492;2023-07-16T09:57:53;11.38;;;4.40;;
64029;SDS011;50277;52.064;4.492;2023-07-16T10:00:20;12.38;;;4.45;;
64029;SDS011;50277;52.064;4.492;2023-07-16T10:02:47;13.13;;;4.85;;
64029;SDS011;50277;52.064;4.492;2023-07-16T10:05:17;8.95;;;4.55;;
64029;SDS011;50277;52.064;4.492;2023-07-16T10:07:51;10.60;;;4.55;;
64029;SDS011;50277;52.064;4.492;2023-07-16T10:10:17;11.02;;;4.85;;
64029;SDS011;50277;52.064;4.492;2023-07-16T10:12:54;13.30;;;4.30;;
64029;SDS011;50277;52.064;4.492;2023-07-16T10:15:27;7.85;;;4.10;;
64029;SDS011;50277;52.064;4.492;2023-07-16T10:17:53;4.78;;;3.08;;
64029;SDS011;50277;52.064;4.492;2023-07-16T10:20:29;7.40;;;3.15;;
64029;SDS011;50277;52.064;4.492;2023-07-16T10:22:55;11.13;;;3.67;;
64029;SDS011;50277;52.064;4.492;2023-07-16T10:27:46;9.93;;;4.20;;
64029;SDS011;50277;52.064;4.492;2023-07-16T10:30:12;9.27;;;3.70;;
64029;SDS011;50277;52.064;4.492;2023-07-16T10:32:37;9.93;;;3.40;;
64029;SDS011;50277;52.064;4.492;2023-07-16T10:35:04;7.85;;;3.63;;
64029;SDS011;50277;52.064;4.492;2023-07-16T10:37:31;11.13;;;3.38;;
64029;SDS011;50277;52.064;4.492;2023-07-16T10:39:57;12.80;;;3.30;;
64029;SDS011;50277;52.064;4.492;2023-07-16T10:42:24;7.97;;;3.47;;
64029;SDS011;50277;52.064;4.492;2023-07-16T10:44:50;8.13;;;3.40;;
64029;SDS011;50277;52.064;4.492;2023-07-16T10:47:22;8.68;;;2.65;;
64029;SDS011;50277;52.064;4.492;2023-07-16T10:49:49;6.90;;;2.85;;
64029;SDS011;50277;52.064;4.492;2023-07-16T10:52:18;11.43;;;2.75;;
64029;SDS011;50277;52.064;4.492;2023-07-16T10:54:43;7.80;;;3.03;;
64029;SDS011;50277;52.064;4.492;2023-07-16T10:57:10;8.15;;;3.28;;
64029;SDS011;50277;52.064;4.492;2023-07-16T10:59:37;11.35;;;3.55;;
64029;SDS011;50277;52.064;4.492;2023-07-16T11:02:05;6.83;;;2.90;;
64029;SDS011;50277;52.064;4.492;2023-07-16T11:04:33;8.90;;;3.53;;
64029;SDS011;50277;52.064;4.492;2023-07-16T11:07:03;13.27;;;3.83;;
64029;SDS011;50277;52.064;4.492;2023-07-16T11:09:29;8.60;;;3.30;;
64029;SDS011;50277;52.064;4.492;2023-07-16T11:11:54;10.35;;;3.10;;
64029;SDS011;50277;52.064;4.492;2023-07-16T11:14:21;6.50;;;2.75;;
64029;SDS011;50277;52.064;4.492;2023-07-16T11:16:46;9.45;;;3.13;;
64029;SDS011;50277;52.064;4.492;2023-07-16T11:19:13;14.38;;;2.97;;
64029;SDS011;50277;52.064;4.492;2023-07-16T11:21:38;11.85;;;2.83;;
64029;SDS011;50277;52.064;4.492;2023-07-16T11:24:14;8.63;;;2.72;;
64029;SDS011;50277;52.064;4.492;2023-07-16T11:26:48;8.48;;;2.65;;
64029;SDS011;50277;52.064;4.492;2023-07-16T11:29:15;8.35;;;2.67;;
64029;SDS011;50277;52.064;4.492;2023-07-16T11:31:40;13.38;;;2.85;;
64029;SDS011;50277;52.064;4.492;2023-07-16T11:34:14;8.63;;;2.75;;
64029;SDS011;50277;52.064;4.492;2023-07-16T11:36:40;13.77;;;2.72;;
64029;SDS011;50277;52.064;4.492;2023-07-16T11:39:05;10.25;;;2.72;;
64029;SDS011;50277;52.064;4.492;2023-07-16T11:41:30;5.78;;;2.42;;
64029;SDS011;50277;52.064;4.492;2023-07-16T11:44:02;7.00;;;2.13;;
64029;SDS011;50277;52.064;4.492;2023-07-16T11:46:31;7.47;;;1.77;;
64029;SDS011;50277;52.064;4.492;2023-07-16T11:48:58;8.02;;;2.72;;
64029;SDS011;50277;52.064;4.492;2023-07-16T11:51:23;6.25;;;2.40;;
64029;SDS011;50277;52.064;4.492;2023-07-16T11:53:48;9.50;;;2.58;;
64029;SDS011;50277;52.064;4.492;2023-07-16T11:56:14;11.10;;;2.42;;
64029;SDS011;50277;52.064;4.492;2023-07-16T11:58:39;10.73;;;2.75;;
64029;SDS011;50277;52.064;4.492;2023-07-16T12:01:04;8.20;;;2.25;;
64029;SDS011;50277;52.064;4.492;2023-07-16T12:03:30;9.35;;;2.60;;
64029;SDS011;50277;52.064;4.492;2023-07-16T12:05:55;15.07;;;3.25;;
64029;SDS011;50277;52.064;4.492;2023-07-16T12:08:21;17.58;;;3.20;;
64029;SDS011;50277;52.064;4.492;2023-07-16T12:10:46;11.18;;;2.72;;
64029;SDS011;50277;52.064;4.492;2023-07-16T12:13:11;11.02;;;3.47;;
64029;SDS011;50277;52.064;4.492;2023-07-16T12:15:37;18.05;;;3.00;;
64029;SDS011;50277;52.064;4.492;2023-07-16T12:18:02;14.10;;;4.18;;
64029;SDS011;50277;52.064;4.492;2023-07-16T12:20:28;13.05;;;3.28;;
64029;SDS011;50277;52.064;4.492;2023-07-16T12:22:53;13.95;;;3.38;;
64029;SDS011;50277;52.064;4.492;2023-07-16T12:25:18;17.25;;;3.05;;
64029;SDS011;50277;52.064;4.492;2023-07-16T12:27:44;11.70;;;3.47;;
64029;SDS011;50277;52.064;4.492;2023-07-16T12:30:10;18.08;;;3.42;;
64029;SDS011;50277;52.064;4.492;2023-07-16T12:32:35;7.82;;;3.30;;
64029;SDS011;50277;52.064;4.492;2023-07-16T12:35:01;13.55;;;3.50;;
64029;SDS011;50277;52.064;4.492;2023-07-16T12:37:26;11.52;;;3.00;;
64029;SDS011;50277;52.064;4.492;2023-07-16T12:39:51;15.90;;;3.85;;
64029;SDS011;50277;52.064;4.492;2023-07-16T12:42:17;12.13;;;3.60;;
64029;SDS011;50277;52.064;4.492;2023-07-16T12:44:42;15.52;;;4.00;;
64029;SDS011;50277;52.064;4.492;2023-07-16T12:47:08;11.27;;;3.55;;
64029;SDS011;50277;52.064;4.492;2023-07-16T12:49:34;14.15;;;3.72;;
64029;SDS011;50277;52.064;4.492;2023-07-16T12:51:59;14.38;;;3.38;;
64029;SDS011;50277;52.064;4.492;2023-07-16T12:54:25;12.38;;;3.33;;
64029;SDS011;50277;52.064;4.492;2023-07-16T12:56:50;12.70;;;2.90;;
64029;SDS011;50277;52.064;4.492;2023-07-16T12:59:15;12.10;;;3.28;;
64029;SDS011;50277;52.064;4.492;2023-07-16T13:01:40;12.10;;;2.95;;
64029;SDS011;50277;52.064;4.492;2023-07-16T13:04:06;15.15;;;2.90;;
64029;SDS011;50277;52.064;4.492;2023-07-16T13:06:31;9.13;;;2.83;;
64029;SDS011;50277;52.064;4.492;2023-07-16T13:08:56;10.45;;;2.95;;
64029;SDS011;50277;52.064;4.492;2023-07-16T13:11:22;14.30;;;3.30;;
64029;SDS011;50277;52.064;4.492;2023-07-16T13:13:47;13.20;;;3.15;;
64029;SDS011;50277;52.064;4.492;2023-07-16T13:16:12;17.38;;;3.50;;
64029;SDS011;50277;52.064;4.492;2023-07-16T13:18:38;10.15;;;3.53;;
64029;SDS011;50277;52.064;4.492;2023-07-16T13:21:03;8.18;;;2.95;;
64029;SDS011;50277;52.064;4.492;2023-07-16T13:23:29;13.52;;;3.60;;
64029;SDS011;50277;52.064;4.492;2023-07-16T13:25:54;13.70;;;3.78;;
64029;SDS011;50277;52.064;4.492;2023-07-16T13:28:21;13.82;;;3.75;;
64029;SDS011;50277;52.064;4.492;2023-07-16T13:30:48;15.18;;;3.30;;
64029;SDS011;50277;52.064;4.492;2023-07-16T13:33:13;10.18;;;2.72;;
64029;SDS011;50277;52.064;4.492;2023-07-16T13:35:38;17.33;;;3.92;;
64029;SDS011;50277;52.064;4.492;2023-07-16T13:38:04;15.30;;;3.83;;
64029;SDS011;50277;52.064;4.492;2023-07-16T13:40:29;17.70;;;4.10;;
64029;SDS011;50277;52.064;4.492;2023-07-16T13:42:55;11.77;;;3.75;;
64029;SDS011;50277;52.064;4.492;2023-07-16T13:45:20;19.98;;;4.65;;
64029;SDS011;50277;52.064;4.492;2023-07-16T13:47:46;18.73;;;4.15;;
64029;SDS011;50277;52.064;4.492;2023-07-16T13:50:11;20.67;;;4.47;;
64029;SDS011;50277;52.064;4.492;2023-07-16T13:52:36;16.83;;;4.15;;
64029;SDS011;50277;52.064;4.492;2023-07-16T13:55:02;18.77;;;3.70;;
64029;SDS011;50277;52.064;4.492;2023-07-16T13:57:28;13.20;;;3.70;;
64029;SDS011;50277;52.064;4.492;2023-07-16T13:59:54;18.77;;;4.05;;
64029;SDS011;50277;52.064;4.492;2023-07-16T14:02:19;13.10;;;3.47;;
64029;SDS011;50277;52.064;4.492;2023-07-16T14:04:45;15.50;;;3.88;;
64029;SDS011;50277;52.064;4.492;2023-07-16T14:07:10;16.13;;;3.47;;
64029;SDS011;50277;52.064;4.492;2023-07-16T14:09:35;16.50;;;4.25;;
64029;SDS011;50277;52.064;4.492;2023-07-16T14:12:01;14.32;;;4.38;;
64029;SDS011;50277;52.064;4.492;2023-07-16T14:14:26;12.98;;;3.83;;
64029;SDS011;50277;52.064;4.492;2023-07-16T14:16:52;13.73;;;3.40;;
64029;SDS011;50277;52.064;4.492;2023-07-16T14:19:18;19.58;;;3.50;;
64029;SDS011;50277;52.064;4.492;2023-07-16T14:21:43;13.63;;;3.97;;
64029;SDS011;50277;52.064;4.492;2023-07-16T14:24:08;19.50;;;4.22;;
64029;SDS011;50277;52.064;4.492;2023-07-16T14:26:34;10.00;;;3.28;;
64029;SDS011;50277;52.064;4.492;2023-07-16T14:28:59;12.38;;;4.15;;
64029;SDS011;50277;52.064;4.492;2023-07-16T14:31:24;13.98;;;4.20;;
64029;SDS011;50277;52.064;4.492;2023-07-16T14:33:50;15.32;;;4.05;;
64029;SDS011;50277;52.064;4.492;2023-07-16T14:36:16;14.07;;;4.10;;
64029;SDS011;50277;52.064;4.492;2023-07-16T14:38:41;17.70;;;3.53;;
64029;SDS011;50277;52.064;4.492;2023-07-16T14:41:07;11.10;;;3.38;;
64029;SDS011;50277;52.064;4.492;2023-07-16T14:43:32;15.60;;;4.30;;